createdAt,value
2017-03-19T00:07:26.640Z,1002.14
2017-03-19T00:17:26.599Z,1002.19
2017-03-19T00:27:26.663Z,1002.26
2017-03-19T00:37:26.615Z,1002.21
2017-03-19T00:47:26.675Z,1002.37
2017-03-19T00:57:26.639Z,1001.93
2017-03-19T01:07:26.704Z,1001.98
2017-03-19T01:17:26.669Z,1001.81
2017-03-19T01:27:26.756Z,1001.7
2017-03-19T01:37:26.688Z,1001.68
2017-03-19T01:47:26.652Z,1001.56
2017-03-19T01:57:26.704Z,1001.57
2017-03-19T02:07:26.664Z,1001.34
2017-03-19T02:17:26.758Z,1001.32
2017-03-19T02:27:26.698Z,1001.16
2017-03-19T02:37:26.757Z,1000.99
2017-03-19T02:47:26.729Z,1000.87
2017-03-19T02:57:26.781Z,1000.79
2017-03-19T03:07:26.749Z,1000.65
2017-03-19T03:17:26.803Z,1000.78
2017-03-19T03:27:26.774Z,1000.74
2017-03-19T03:37:26.819Z,1000.66
2017-03-19T03:47:26.784Z,1000.55
2017-03-19T03:57:26.853Z,1000.31
2017-03-19T04:07:26.810Z,1000.05
2017-03-19T04:17:26.876Z,1000.02
2017-03-19T04:27:26.842Z,1000
2017-03-19T04:37:26.804Z,999.93
2017-03-19T04:47:26.859Z,999.83
2017-03-19T04:57:26.868Z,999.85
2017-03-19T05:07:26.821Z,999.71
2017-03-19T05:17:26.891Z,999.78
2017-03-19T05:27:26.852Z,999.66
2017-03-19T05:37:26.916Z,999.64
2017-03-19T05:47:26.886Z,999.5
2017-03-19T05:57:26.940Z,999.34
2017-03-19T06:07:26.910Z,999.31
2017-03-19T06:17:26.976Z,999.39
2017-03-19T06:27:26.923Z,999.25
2017-03-19T06:37:26.984Z,999.12
2017-03-19T06:47:26.943Z,999.06
2017-03-19T06:57:29.011Z,999
2017-03-19T07:07:26.972Z,998.89
2017-03-19T07:17:27.031Z,998.92
2017-03-19T07:27:26.990Z,998.95
2017-03-19T07:37:27.056Z,998.87
2017-03-19T07:47:27.028Z,998.85
2017-03-19T07:57:26.988Z,998.77
2017-03-19T08:07:27.041Z,998.79
2017-03-19T08:17:27.071Z,998.84
2017-03-19T08:27:27.018Z,998.82
2017-03-19T08:37:27.083Z,998.8
2017-03-19T08:47:27.036Z,998.87
2017-03-19T08:57:27.109Z,998.75
2017-03-19T09:07:27.063Z,998.83
2017-03-19T09:17:27.029Z,998.77
2017-03-19T09:27:27.138Z,998.94
2017-03-19T09:37:27.156Z,998.97
2017-03-19T09:47:27.115Z,999.05
2017-03-19T09:57:27.183Z,998.97
2017-03-19T10:07:27.153Z,998.71
2017-03-19T10:17:27.098Z,998.58
2017-03-19T10:27:27.168Z,998.71
2017-03-19T10:37:27.124Z,998.82
2017-03-19T10:47:27.205Z,998.61
2017-03-19T10:57:27.144Z,998.6
2017-03-19T11:07:27.204Z,998.67
2017-03-19T11:17:27.177Z,998.61
2017-03-19T11:27:27.245Z,998.28
2017-03-19T11:37:27.202Z,998.35
2017-03-19T11:47:27.260Z,998.37
2017-03-19T11:57:27.232Z,998.41
2017-03-19T12:07:27.270Z,998.5
2017-03-19T12:17:27.241Z,998.75
2017-03-19T12:27:27.314Z,998.59
2017-03-19T12:37:27.272Z,998.61
2017-03-19T12:47:27.216Z,998.64
2017-03-19T12:57:27.239Z,998.6
2017-03-19T13:07:27.383Z,998.52
2017-03-19T13:17:27.238Z,998.35
2017-03-19T13:27:27.259Z,998.16
2017-03-19T13:37:27.265Z,998.05
2017-03-19T13:47:27.307Z,998.24
2017-03-19T13:57:27.291Z,998.33
2017-03-19T14:07:27.312Z,998.25
2017-03-19T14:17:27.331Z,998.04
2017-03-19T14:27:27.326Z,998.17
2017-03-19T14:37:27.323Z,998.05
2017-03-19T14:47:27.333Z,998.11
2017-03-19T14:57:27.354Z,998.19
2017-03-19T15:07:27.366Z,998.27
2017-03-19T15:17:27.443Z,998.41
2017-03-19T15:27:27.429Z,998.38
2017-03-19T15:37:27.492Z,998.26
2017-03-19T15:47:27.440Z,998.37
2017-03-19T15:57:27.510Z,998.33
2017-03-19T16:07:27.481Z,998.35
2017-03-19T16:17:27.531Z,998.34
2017-03-19T16:27:27.435Z,998.25
2017-03-19T16:37:27.440Z,998.37
2017-03-19T16:47:27.463Z,998.54
2017-03-19T16:57:27.487Z,998.65
2017-03-19T17:07:27.540Z,998.78
2017-03-19T17:17:27.499Z,998.8
2017-03-19T17:27:27.566Z,998.91
2017-03-19T17:37:27.766Z,998.94
2017-03-19T17:47:27.570Z,998.97
2017-03-19T17:57:27.553Z,999.1
2017-03-19T18:07:27.614Z,999.05
2017-03-19T18:17:27.555Z,999.06
2017-03-19T18:27:27.640Z,999.34
2017-03-19T18:37:27.590Z,999.4
2017-03-19T18:47:27.672Z,999.35
2017-03-19T18:57:27.614Z,999.34
2017-03-19T19:07:27.666Z,999.39
2017-03-19T19:17:27.630Z,999.28
2017-03-19T19:27:27.653Z,999.17
2017-03-19T19:37:27.711Z,999.23
2017-03-19T19:47:27.661Z,999.22
2017-03-19T19:57:27.726Z,999.33
2017-03-19T20:07:27.680Z,999.34
2017-03-19T20:17:27.761Z,999.18
2017-03-19T20:27:27.754Z,999.32
2017-03-19T20:37:27.678Z,999.37
2017-03-19T20:47:27.746Z,999.47
2017-03-19T20:57:27.713Z,999.58
2017-03-19T21:07:27.765Z,999.53
2017-03-19T21:17:27.993Z,999.41
2017-03-19T21:27:27.812Z,999.59
2017-03-19T21:37:27.758Z,999.62
2017-03-19T21:47:27.813Z,999.73
2017-03-19T21:57:27.954Z,999.93
2017-03-19T22:07:27.948Z,1000.03
2017-03-19T22:17:27.878Z,999.89
2017-03-19T22:27:27.917Z,999.89
2017-03-19T22:37:27.833Z,1000.01
2017-03-19T22:47:27.789Z,1000.08
2017-03-19T22:57:28.891Z,999.97
2017-03-19T23:07:27.802Z,999.92
2017-03-19T23:17:27.870Z,999.93
2017-03-19T23:27:27.948Z,999.97
2017-03-19T23:37:27.886Z,999.89
2017-03-19T23:47:27.855Z,1000
2017-03-19T23:57:27.939Z,1000.01
